Terminal Aerodrome Forecast
Issued by NWS

Home | Current Version | Previous Version | Text Only | Print | Product List | Glossary Off
Versions: 1 2 3 4 5 6 7 8 9 10 11 12 13 14 15 16 17 18 19

000
FTUS43 KTOP 210500
TAFMHK
TAF
KMHK 210520Z 2106/2206 35004KT P6SM SCT028 BKN040
     FM210800 35003KT P6SM BKN200
      TEMPO 2109/2112 00000KT 3SM BR=

USA.gov is the U.S. government's official web portal to all federal, state and local government web resources and services.